Time;durP1;ratioP1;P1;durP2;ratioP2;P2;SDS_P1;SDS_P2;PMS_P1;PMS_P2;Temp;Humidity;BMP_temperature;BMP_pressure;BME280_temperature;BME280_humidity;BME280_pressure;Samples;Min_cycle;Max_cycle;Signal;HPM_P1;HPM_P2
2023/08/26 00:00:40;;;;;;;7.50;3.25;;;19.90;99.90;;;;;;5066033;28;20475;-32
2023/08/26 00:03:05;;;;;;;5.75;2.67;;;19.80;99.90;;;;;;5062687;28;20036;-36
2023/08/26 00:05:31;;;;;;;6.68;2.90;;;19.60;99.90;;;;;;5056283;28;20502;-37
2023/08/26 00:08:01;;;;;;;6.47;2.58;;;19.30;99.90;;;;;;5061081;28;20040;-33
2023/08/26 00:10:26;;;;;;;5.75;2.40;;;19.40;99.90;;;;;;5059343;28;20396;-38
2023/08/26 00:12:52;;;;;;;6.50;2.90;;;19.70;99.90;;;;;;5064758;28;20032;-34
2023/08/26 00:15:18;;;;;;;5.00;2.50;;;19.60;99.90;;;;;;5058909;28;20051;-34
2023/08/26 00:17:44;;;;;;;7.63;2.90;;;19.60;99.90;;;;;;5066226;28;20036;-37
2023/08/26 00:20:10;;;;;;;8.48;3.60;;;19.20;99.90;;;;;;5062127;28;20402;-37
2023/08/26 00:22:37;;;;;;;7.75;2.50;;;19.50;99.90;;;;;;5061189;28;20032;-37
2023/08/26 00:25:03;;;;;;;7.90;2.17;;;19.40;99.90;;;;;;5061075;28;20044;-36
2023/08/26 00:27:29;;;;;;;6.80;2.65;;;19.20;99.90;;;;;;5058070;28;20120;-35
2023/08/26 00:29:54;;;;;;;4.75;1.88;;;19.40;99.90;;;;;;5060957;28;20483;-36
2023/08/26 00:32:20;;;;;;;6.90;1.73;;;19.10;99.90;;;;;;5057685;28;20033;-35
2023/08/26 00:34:46;;;;;;;7.18;2.00;;;19.40;99.90;;;;;;5054433;28;20032;-36
2023/08/26 00:37:14;;;;;;;4.85;1.90;;;19.20;99.90;;;;;;5052566;28;20034;-32
2023/08/26 00:39:40;;;;;;;6.18;1.80;;;19.40;99.90;;;;;;5057690;28;20041;-34
2023/08/26 00:42:06;;;;;;;7.03;2.13;;;18.90;99.90;;;;;;5056604;28;20051;-34
2023/08/26 00:44:31;;;;;;;6.50;1.63;;;19.20;99.90;;;;;;5058720;28;20036;-36
2023/08/26 00:46:59;;;;;;;5.65;1.98;;;18.60;95.80;;;;;;5065384;28;20524;-34
2023/08/26 00:49:25;;;;;;;5.20;1.85;;;16.70;91.20;;;;;;5060855;28;20127;-35
2023/08/26 00:51:51;;;;;;;8.90;1.92;;;19.10;89.10;;;;;;5057651;28;20546;-34
2023/08/26 00:54:17;;;;;;;6.07;2.08;;;18.60;84.40;;;;;;5050007;28;20094;-36
2023/08/26 00:56:43;;;;;;;5.80;1.80;;;19.10;74.20;;;;;;5049064;28;20046;-37
2023/08/26 00:59:10;;;;;;;6.78;1.90;;;18.90;73.90;;;;;;5052370;28;20044;-34
2023/08/26 01:01:36;;;;;;;5.97;1.90;;;19.50;72.40;;;;;;5054970;28;20111;-34
2023/08/26 01:04:02;;;;;;;6.55;1.80;;;18.50;68.50;;;;;;5044875;28;20121;-34
2023/08/26 01:06:28;;;;;;;7.28;1.73;;;18.90;63.70;;;;;;5062305;28;20575;-37
2023/08/26 01:08:54;;;;;;;6.45;1.80;;;18.90;61.20;;;;;;5061615;28;20076;-36
2023/08/26 01:11:35;;;;;;;5.50;1.90;;;18.80;59.10;;;;;;5053861;28;20045;-36
2023/08/26 01:14:04;;;;;;;7.15;2.17;;;19.10;36.90;;;;;;5049312;28;20498;-35
2023/08/26 01:16:32;;;;;;;4.45;1.63;;;19.00;56.20;;;;;;5055204;28;20043;-35
2023/08/26 01:18:59;;;;;;;6.22;1.85;;;19.20;52.10;;;;;;5050322;28;20041;-36
2023/08/26 01:21:35;;;;;;;8.18;1.83;;;18.80;46.90;;;;;;5058721;28;20045;-35
2023/08/26 01:24:01;;;;;;;7.70;1.65;;;18.10;33.30;;;;;;5060833;28;20060;-34
2023/08/26 01:26:27;;;;;;;5.40;1.70;;;18.00;28.00;;;;;;5051181;28;20048;-36
2023/08/26 01:28:52;;;;;;;7.80;1.73;;;18.60;24.00;;;;;;5053957;28;20045;-35
2023/08/26 01:31:20;;;;;;;5.90;1.85;;;19.00;22.30;;;;;;5051406;28;20409;-37
2023/08/26 01:34:02;;;;;;;5.38;1.70;;;18.80;21.00;;;;;;5053466;28;20559;-35
2023/08/26 01:36:31;;;;;;;5.38;2.10;;;18.60;17.50;;;;;;5040222;28;20377;-36
2023/08/26 01:38:57;;;;;;;8.18;2.00;;;19.00;18.20;;;;;;5057615;28;20072;-35
2023/08/26 01:41:25;;;;;;;6.10;1.77;;;18.80;14.40;;;;;;5039715;28;20037;-32
2023/08/26 01:43:51;;;;;;;8.60;2.17;;;18.70;15.80;;;;;;5050118;28;20652;-37
2023/08/26 01:46:17;;;;;;;4.72;1.67;;;18.70;9.50;;;;;;5048535;28;20053;-37
2023/08/26 01:48:43;;;;;;;6.20;1.92;;;18.80;7.30;;;;;;5058505;28;20094;-36
2023/08/26 01:51:11;;;;;;;5.50;1.55;;;18.60;5.10;;;;;;5063339;28;20035;-37
2023/08/26 01:53:37;;;;;;;4.80;1.67;;;18.60;8.60;;;;;;5062954;28;20029;-37
2023/08/26 01:56:03;;;;;;;5.47;2.08;;;17.80;7.10;;;;;;5068238;28;20116;-37
2023/08/26 01:58:28;;;;;;;5.30;1.70;;;18.50;3.50;;;;;;5053138;28;20107;-37
2023/08/26 02:00:54;;;;;;;6.78;2.10;;;18.60;6.60;;;;;;5056881;28;20040;-37
2023/08/26 02:03:20;;;;;;;5.90;2.10;;;18.70;6.70;;;;;;5054331;28;20044;-37
2023/08/26 02:05:45;;;;;;;5.40;1.70;;;18.40;7.80;;;;;;5052891;28;20098;-34
2023/08/26 02:08:11;;;;;;;5.03;1.90;;;18.50;9.30;;;;;;5051760;28;20478;-36
2023/08/26 02:10:37;;;;;;;8.45;2.60;;;18.10;8.40;;;;;;5058273;28;20045;-35
2023/08/26 02:13:02;;;;;;;6.38;2.00;;;18.70;10.30;;;;;;5033859;28;20086;-35
2023/08/26 02:15:28;;;;;;;6.03;2.20;;;18.70;5.50;;;;;;5057778;28;20829;-35
2023/08/26 02:17:54;;;;;;;6.65;2.40;;;18.80;9.60;;;;;;5051575;28;20035;-37
2023/08/26 02:20:19;;;;;;;6.65;2.20;;;18.40;12.20;;;;;;5053946;28;20048;-37
2023/08/26 02:22:45;;;;;;;5.65;2.80;;;18.60;14.60;;;;;;5057000;28;20056;-34
2023/08/26 02:25:11;;;;;;;4.95;1.90;;;18.70;12.20;;;;;;5057844;28;20029;-36
2023/08/26 02:27:36;;;;;;;6.40;1.92;;;18.40;14.00;;;;;;5058775;28;20036;-37
2023/08/26 02:30:02;;;;;;;4.93;1.95;;;18.30;17.80;;;;;;5051864;28;20617;-36
2023/08/26 02:32:28;;;;;;;4.97;1.95;;;18.60;17.70;;;;;;5052554;28;20072;-35
2023/08/26 02:34:54;;;;;;;5.72;2.05;;;17.60;21.00;;;;;;5056898;28;20068;-37
2023/08/26 02:37:21;;;;;;;5.07;1.95;;;18.60;23.00;;;;;;5053714;28;20384;-35
2023/08/26 02:39:47;;;;;;;6.80;2.08;;;17.90;21.80;;;;;;5048511;28;20040;-35
2023/08/26 02:42:12;;;;;;;5.35;1.95;;;19.00;21.10;;;;;;5059111;28;20040;-36
2023/08/26 02:44:38;;;;;;;5.88;1.90;;;18.20;25.10;;;;;;5063149;28;20083;-35
2023/08/26 02:47:04;;;;;;;4.60;1.85;;;17.90;17.90;;;;;;5060896;28;20029;-35
2023/08/26 02:49:29;;;;;;;5.47;1.80;;;18.30;12.70;;;;;;5050755;28;20041;-35
2023/08/26 02:51:55;;;;;;;4.78;1.88;;;17.70;14.50;;;;;;5056385;28;20068;-35
2023/08/26 02:54:20;;;;;;;4.45;2.00;;;17.80;12.60;;;;;;5057793;28;20445;-37
2023/08/26 02:56:46;;;;;;;5.60;1.90;;;18.30;9.80;;;;;;5053742;28;20029;-33
2023/08/26 02:59:12;;;;;;;6.43;1.88;;;17.90;7.80;;;;;;5054656;28;20060;-34
2023/08/26 03:01:38;;;;;;;5.97;1.90;;;18.70;10.70;;;;;;5053969;28;20041;-36
2023/08/26 03:04:04;;;;;;;5.57;2.42;;;17.60;9.50;;;;;;5062025;28;20037;-36
2023/08/26 03:06:30;;;;;;;6.88;2.10;;;18.00;9.20;;;;;;5052330;28;20049;-35
2023/08/26 03:08:55;;;;;;;5.00;2.00;;;18.30;9.70;;;;;;5060291;28;20051;-35
2023/08/26 03:11:22;;;;;;;4.95;1.52;;;18.80;8.90;;;;;;5061744;28;20033;-34
2023/08/26 03:13:49;;;;;;;6.82;2.10;;;18.50;10.80;;;;;;5047184;28;20123;-34
2023/08/26 03:16:16;;;;;;;5.35;2.10;;;18.90;7.20;;;;;;5054758;28;20555;-35
2023/08/26 03:18:42;;;;;;;4.35;2.10;;;18.60;10.80;;;;;;5049405;28;20029;-35
2023/08/26 03:21:09;;;;;;;5.10;2.03;;;18.80;7.80;;;;;;5051796;28;20033;-37
2023/08/26 03:23:34;;;;;;;6.10;1.98;;;18.60;6.20;;;;;;5050509;28;20033;-36
2023/08/26 03:26:01;;;;;;;5.35;1.90;;;18.70;4.90;;;;;;5055782;28;20514;-37
2023/08/26 03:28:28;;;;;;;12.13;2.85;;;18.60;6.70;;;;;;5062019;28;20072;-33
2023/08/26 03:30:53;;;;;;;4.50;1.90;;;17.90;7.20;;;;;;5054188;28;20579;-34
2023/08/26 03:33:19;;;;;;;4.82;2.05;;;18.40;7.10;;;;;;5055169;28;20060;-36
2023/08/26 03:35:44;;;;;;;6.32;2.22;;;18.10;6.70;;;;;;5054044;28;20036;-36
2023/08/26 03:38:13;;;;;;;6.30;2.13;;;18.10;7.80;;;;;;5045760;28;20119;-32
2023/08/26 03:40:42;;;;;;;6.03;2.40;;;18.60;10.10;;;;;;5060168;28;20123;-35
2023/08/26 03:43:08;;;;;;;6.93;2.38;;;17.60;1.00;;;;;;5057656;28;20517;-35
2023/08/26 03:45:34;;;;;;;5.90;2.15;;;18.20;12.70;;;;;;5058087;28;20041;-34
2023/08/26 03:47:59;;;;;;;6.72;2.15;;;18.20;13.70;;;;;;5052080;28;20033;-36
2023/08/26 03:50:25;;;;;;;4.65;2.20;;;17.40;14.10;;;;;;5058232;28;20048;-34
2023/08/26 03:52:50;;;;;;;4.78;2.20;;;18.20;13.00;;;;;;5051009;28;20079;-34
2023/08/26 03:55:16;;;;;;;5.88;2.53;;;18.70;19.30;;;;;;5052374;28;20103;-34
2023/08/26 03:57:42;;;;;;;6.15;2.55;;;18.40;20.60;;;;;;5061198;28;20094;-34
2023/08/26 04:00:09;;;;;;;8.73;2.95;;;18.10;20.80;;;;;;5053259;28;20061;-37
2023/08/26 04:02:34;;;;;;;5.68;2.50;;;18.80;15.90;;;;;;5056364;28;20600;-34
2023/08/26 04:05:00;;;;;;;6.03;2.63;;;17.90;27.60;;;;;;5051762;28;20041;-36
2023/08/26 04:07:26;;;;;;;5.78;2.97;;;18.50;18.60;;;;;;5049401;28;20071;-35
2023/08/26 04:09:52;;;;;;;7.30;3.22;;;17.80;15.20;;;;;;5049661;28;20033;-34
2023/08/26 04:12:17;;;;;;;5.10;2.60;;;17.60;16.00;;;;;;5057750;28;20065;-34
2023/08/26 04:14:43;;;;;;;5.90;2.90;;;17.70;15.20;;;;;;5053187;28;20036;-35
2023/08/26 04:17:09;;;;;;;4.97;2.50;;;18.10;13.80;;;;;;5049579;28;20499;-36
2023/08/26 04:19:34;;;;;;;5.70;3.15;;;17.40;11.30;;;;;;5038394;28;20064;-33
2023/08/26 04:22:01;;;;;;;5.90;2.65;;;17.90;9.50;;;;;;5060865;28;20120;-35
2023/08/26 04:24:27;;;;;;;5.57;2.42;;;17.40;11.00;;;;;;5051115;28;20076;-34
2023/08/26 04:26:53;;;;;;;5.40;3.08;;;18.00;9.00;;;;;;5058644;28;20115;-35
2023/08/26 04:29:19;;;;;;;9.05;3.13;;;17.30;11.80;;;;;;5049799;28;20451;-34
2023/08/26 04:31:44;;;;;;;5.35;2.60;;;17.20;11.00;;;;;;5055683;28;20044;-35
2023/08/26 04:34:11;;;;;;;6.85;2.97;;;17.70;11.50;;;;;;5044393;28;20055;-37
2023/08/26 04:36:36;;;;;;;6.45;2.85;;;17.30;10.90;;;;;;5043195;28;20037;-34
2023/08/26 04:39:10;;;;;;;6.10;2.78;;;17.80;12.80;;;;;;5055495;28;20039;-36
2023/08/26 04:41:37;;;;;;;5.07;2.50;;;17.40;14.10;;;;;;5056440;28;20040;-37
2023/08/26 04:44:04;;;;;;;5.15;2.72;;;18.00;15.70;;;;;;5056194;28;20037;-34
2023/08/26 04:46:31;;;;;;;6.53;2.67;;;17.30;12.80;;;;;;5060570;28;20040;-33
2023/08/26 04:48:57;;;;;;;6.05;2.63;;;18.30;20.10;;;;;;5051750;28;20509;-37
2023/08/26 04:51:22;;;;;;;6.63;2.80;;;17.30;20.70;;;;;;5062199;28;20033;-34
2023/08/26 04:53:48;;;;;;;7.43;2.72;;;17.60;19.30;;;;;;5054755;28;20045;-36
2023/08/26 04:56:15;;;;;;;6.57;2.65;;;17.70;26.00;;;;;;5053107;28;20040;-33
2023/08/26 04:58:40;;;;;;;6.82;2.38;;;17.90;28.50;;;;;;5048835;28;20055;-37
2023/08/26 05:01:06;;;;;;;5.82;2.40;;;17.20;28.60;;;;;;5050498;28;20629;-33
2023/08/26 05:03:32;;;;;;;6.53;2.50;;;17.20;31.60;;;;;;5045805;28;20033;-36
2023/08/26 05:05:58;;;;;;;5.80;2.63;;;17.50;37.70;;;;;;5045586;28;20029;-36
2023/08/26 05:08:24;;;;;;;6.28;2.40;;;18.30;39.20;;;;;;5042862;28;20548;-34
2023/08/26 05:10:49;;;;;;;5.40;2.50;;;17.10;41.10;;;;;;5045089;28;20041;-37
2023/08/26 05:13:15;;;;;;;7.18;3.17;;;17.40;40.30;;;;;;5042515;28;20555;-36
2023/08/26 05:15:41;;;;;;;5.30;2.65;;;17.70;45.50;;;;;;5039531;28;20045;-36
2023/08/26 05:18:06;;;;;;;7.20;2.60;;;17.40;47.20;;;;;;5029061;28;20029;-37
2023/08/26 05:20:32;;;;;;;4.97;2.65;;;17.10;46.60;;;;;;5041204;28;20041;-34
2023/08/26 05:22:58;;;;;;;5.00;2.22;;;18.30;47.30;;;;;;5048935;28;20556;-36
2023/08/26 05:25:24;;;;;;;6.90;2.65;;;17.80;50.20;;;;;;5045475;28;20041;-34
2023/08/26 05:27:49;;;;;;;5.45;2.70;;;18.00;49.50;;;;;;5046793;28;20376;-33
2023/08/26 05:30:15;;;;;;;4.90;2.20;;;17.50;53.90;;;;;;5043315;28;20507;-35
2023/08/26 05:32:41;;;;;;;4.43;2.47;;;18.40;58.90;;;;;;5045393;28;20071;-37
2023/08/26 05:35:07;;;;;;;8.70;2.60;;;17.60;62.40;;;;;;5042877;28;20040;-34
2023/08/26 05:37:32;;;;;;;5.82;2.45;;;17.30;60.10;;;;;;5050343;28;20047;-38
2023/08/26 05:39:58;;;;;;;6.28;2.40;;;17.90;73.70;;;;;;5043183;28;20116;-37
2023/08/26 05:42:24;;;;;;;4.80;2.40;;;17.20;89.20;;;;;;5050882;28;20102;-36
2023/08/26 05:44:49;;;;;;;5.85;2.28;;;18.30;94.10;;;;;;5041440;28;20037;-37
2023/08/26 05:47:15;;;;;;;8.15;2.80;;;17.70;99.90;;;;;;5047310;28;20037;-36
2023/08/26 05:49:40;;;;;;;7.95;2.85;;;18.10;99.90;;;;;;5038212;28;20047;-37
2023/08/26 05:52:06;;;;;;;5.05;2.70;;;18.50;99.90;;;;;;5039225;28;20036;-34
2023/08/26 05:54:32;;;;;;;5.82;2.88;;;17.80;99.90;;;;;;5040177;28;20091;-35
2023/08/26 05:56:57;;;;;;;7.78;3.15;;;18.60;99.90;;;;;;5066097;28;20090;-34
2023/08/26 05:59:23;;;;;;;7.55;3.25;;;17.80;99.90;;;;;;5040658;28;20080;-35
2023/08/26 06:01:49;;;;;;;8.65;3.88;;;17.90;99.90;;;;;;5038349;28;20451;-37
2023/08/26 06:04:14;;;;;;;7.10;3.55;;;18.60;99.90;;;;;;5050224;28;20079;-35
2023/08/26 06:06:40;;;;;;;9.95;2.63;;;18.60;99.90;;;;;;5050239;28;20461;-36
2023/08/26 06:09:06;;;;;;;6.50;3.08;;;18.50;99.90;;;;;;5051108;28;20449;-37
2023/08/26 06:11:31;;;;;;;6.93;2.78;;;18.30;99.90;;;;;;5052607;28;20369;-35
2023/08/26 06:13:58;;;;;;;5.97;3.10;;;18.10;99.90;;;;;;5045568;28;20075;-35
2023/08/26 06:16:24;;;;;;;8.07;2.80;;;17.60;99.90;;;;;;5044712;28;20068;-36
2023/08/26 06:18:49;;;;;;;5.90;2.92;;;17.80;99.90;;;;;;5052353;28;20061;-37
2023/08/26 06:21:15;;;;;;;6.25;2.72;;;18.70;99.90;;;;;;5051130;28;20036;-35
2023/08/26 06:23:41;;;;;;;6.40;2.95;;;18.20;99.90;;;;;;5046131;28;20456;-34
2023/08/26 06:26:07;;;;;;;6.38;2.78;;;17.80;99.90;;;;;;5052821;28;20068;-35
2023/08/26 06:28:33;;;;;;;6.95;2.92;;;18.60;99.90;;;;;;5050014;28;20036;-35
2023/08/26 06:30:59;;;;;;;6.30;3.10;;;18.60;99.90;;;;;;5053004;28;20729;-35
2023/08/26 06:33:25;;;;;;;6.85;2.80;;;18.70;99.90;;;;;;5052419;28;20406;-36
2023/08/26 06:35:52;;;;;;;6.35;2.80;;;18.40;99.90;;;;;;5052397;28;20033;-33
2023/08/26 06:38:18;;;;;;;6.45;2.83;;;18.90;99.90;;;;;;5051441;28;20099;-36
2023/08/26 06:40:51;;;;;;;6.88;3.00;;;18.90;99.90;;;;;;5058308;28;20058;-35
2023/08/26 06:43:17;;;;;;;6.93;3.28;;;18.90;99.90;;;;;;5054686;28;20048;-34
2023/08/26 06:45:43;;;;;;;5.85;3.20;;;18.80;99.90;;;;;;5062584;28;20055;-36
2023/08/26 06:48:09;;;;;;;6.18;3.20;;;17.90;99.90;;;;;;5059019;28;20076;-37
2023/08/26 06:50:34;;;;;;;7.13;3.40;;;18.80;99.90;;;;;;5056024;28;20447;-36
2023/08/26 06:53:00;;;;;;;12.00;3.95;;;18.60;99.90;;;;;;5063692;28;20070;-37
2023/08/26 06:55:26;;;;;;;6.70;3.78;;;18.60;99.90;;;;;;5061161;28;20033;-37
2023/08/26 06:57:51;;;;;;;7.03;3.95;;;18.00;99.90;;;;;;5059769;28;20115;-37
2023/08/26 07:00:18;;;;;;;8.80;3.85;;;18.20;99.90;;;;;;5055934;28;20433;-37
2023/08/26 07:02:44;;;;;;;7.47;4.05;;;18.90;99.90;;;;;;5060510;28;20040;-36
2023/08/26 07:05:09;;;;;;;7.63;3.85;;;18.80;99.90;;;;;;5055052;28;20043;-36
2023/08/26 07:07:36;;;;;;;7.55;3.97;;;19.00;99.90;;;;;;5049103;28;20045;-35
2023/08/26 07:10:03;;;;;;;8.40;4.55;;;19.00;99.90;;;;;;5059933;28;20044;-34
2023/08/26 07:12:30;;;;;;;8.93;5.32;;;18.70;99.90;;;;;;5056738;28;20120;-34
2023/08/26 07:14:56;;;;;;;7.85;4.55;;;18.90;99.90;;;;;;5053598;28;20037;-36
2023/08/26 07:17:21;;;;;;;6.65;2.38;;;18.80;99.90;;;;;;5055783;28;20039;-36
2023/08/26 07:19:47;;;;;;;7.47;4.47;;;18.90;99.90;;;;;;5057052;28;20079;-37
2023/08/26 07:22:13;;;;;;;11.63;6.60;;;18.80;99.90;;;;;;5058110;28;20561;-36
2023/08/26 07:24:38;;;;;;;15.18;6.55;;;19.10;99.90;;;;;;5056116;28;20112;-36
2023/08/26 07:27:04;;;;;;;14.40;6.47;;;19.30;99.90;;;;;;5060038;28;20063;-36
2023/08/26 07:29:34;;;;;;;27.90;9.48;;;19.00;99.90;;;;;;5050895;28;20059;-34
2023/08/26 07:31:59;;;;;;;15.23;7.68;;;18.90;1.00;;;;;;5048447;28;20395;-35
2023/08/26 07:34:25;;;;;;;17.05;7.75;;;19.10;1.00;;;;;;5045568;28;20029;-34
2023/08/26 07:36:51;;;;;;;14.80;8.13;;;19.20;1.00;;;;;;5052734;28;20037;-35
2023/08/26 07:39:18;;;;;;;12.43;7.70;;;19.20;1.00;;;;;;5056756;28;20059;-34
2023/08/26 07:41:44;;;;;;;14.55;6.45;;;19.20;1.00;;;;;;5040879;28;20500;-37
2023/08/26 07:44:10;;;;;;;11.10;6.07;;;19.20;1.00;;;;;;5041822;22;20037;-77
2023/08/26 07:46:35;;;;;;;10.27;6.70;;;19.50;1.00;;;;;;5021045;28;20050;-77
2023/08/26 07:49:01;;;;;;;13.82;6.50;;;19.10;1.00;;;;;;5023164;28;20075;-78
2023/08/26 07:51:30;;;;;;;9.32;5.88;;;18.60;1.00;;;;;;5029114;28;20518;-77
2023/08/26 07:53:55;;;;;;;9.45;5.72;;;19.50;1.00;;;;;;5017363;28;20034;-77
2023/08/26 07:56:21;;;;;;;8.50;5.20;;;19.30;1.00;;;;;;5029726;28;20040;-77
2023/08/26 07:58:48;;;;;;;8.27;4.93;;;19.20;1.00;;;;;;5018351;28;20120;-77
2023/08/26 08:01:14;;;;;;;9.05;5.53;;;19.20;1.00;;;;;;5021925;28;20384;-78
2023/08/26 08:03:39;;;;;;;11.43;5.25;;;19.10;99.90;;;;;;5026595;28;20041;-78
2023/08/26 08:06:05;;;;;;;10.82;5.20;;;19.10;99.90;;;;;;5004719;28;20373;-78
2023/08/26 08:08:31;;;;;;;7.80;4.32;;;19.10;99.90;;;;;;5010268;28;20415;-77
2023/08/26 08:10:56;;;;;;;7.30;3.70;;;19.30;99.90;;;;;;5022276;28;20087;-77
2023/08/26 08:13:22;;;;;;;8.18;3.97;;;19.20;99.90;;;;;;5019442;28;20096;-78
2023/08/26 08:15:48;;;;;;;6.88;3.33;;;19.10;99.90;;;;;;5022309;28;20123;-78
2023/08/26 08:18:14;;;;;;;8.80;3.30;;;19.00;99.90;;;;;;5023374;28;20033;-78
2023/08/26 08:20:39;;;;;;;6.97;3.50;;;19.20;99.90;;;;;;5004868;28;20082;-77
2023/08/26 08:23:05;;;;;;;5.70;2.78;;;19.00;99.90;;;;;;5021523;28;20050;-78
2023/08/26 08:25:31;;;;;;;5.93;1.98;;;19.50;99.90;;;;;;5004823;28;20525;-78
2023/08/26 08:27:57;;;;;;;6.40;2.53;;;19.00;99.90;;;;;;5027487;28;20120;-78
2023/08/26 08:30:22;;;;;;;5.40;2.00;;;19.00;99.90;;;;;;5026315;28;20034;-78
2023/08/26 08:32:49;;;;;;;4.82;1.75;;;19.40;99.90;;;;;;5027471;28;20034;-78
2023/08/26 08:35:14;;;;;;;5.28;1.50;;;19.40;99.90;;;;;;5026792;28;20145;-78
2023/08/26 08:37:40;;;;;;;4.13;1.38;;;19.40;99.90;;;;;;5031961;28;20055;-78
2023/08/26 08:40:06;;;;;;;4.93;1.40;;;19.20;99.90;;;;;;5030570;28;20406;-78
2023/08/26 08:42:34;;;;;;;5.00;1.80;;;19.40;99.90;;;;;;5018312;28;20041;-78
2023/08/26 08:45:03;;;;;;;3.95;1.48;;;19.40;99.90;;;;;;5028916;28;20093;-78
2023/08/26 08:47:30;;;;;;;6.25;1.55;;;19.20;99.90;;;;;;5013685;28;20503;-78
2023/08/26 08:49:57;;;;;;;5.00;1.63;;;19.10;99.90;;;;;;5023789;28;20506;-78
2023/08/26 08:52:25;;;;;;;4.18;1.55;;;19.10;99.90;;;;;;5013555;28;20048;-78
2023/08/26 08:54:51;;;;;;;5.50;1.35;;;19.30;99.90;;;;;;5029844;28;20034;-78
2023/08/26 08:57:23;;;;;;;5.85;1.70;;;19.00;99.90;;;;;;5027980;28;20060;-78
2023/08/26 08:59:49;;;;;;;5.60;1.65;;;18.90;99.90;;;;;;5012597;28;20491;-78
2023/08/26 09:02:15;;;;;;;4.47;1.80;;;19.40;99.90;;;;;;5033030;28;20116;-78
2023/08/26 09:04:44;;;;;;;4.65;1.55;;;18.90;99.90;;;;;;5007493;28;20084;-78
2023/08/26 09:07:13;;;;;;;6.60;1.77;;;19.10;99.90;;;;;;5013068;28;20080;-78
2023/08/26 09:09:38;;;;;;;3.40;1.20;;;19.20;99.90;;;;;;5027095;28;20033;-78
2023/08/26 09:12:07;;;;;;;4.00;1.42;;;19.20;99.90;;;;;;5025249;28;20044;-79
2023/08/26 09:14:33;;;;;;;4.80;1.35;;;19.30;99.90;;;;;;5026222;28;20052;-78
2023/08/26 09:17:16;;;;;;;4.70;1.77;;;20.50;99.90;;;;;;5023159;28;20038;-78
2023/08/26 09:20:10;;;;;;;4.70;1.60;;;19.10;99.90;;;;;;5021415;28;20037;-78
2023/08/26 09:22:36;;;;;;;4.20;1.70;;;19.10;99.90;;;;;;5039209;28;20120;-78
2023/08/26 09:25:05;;;;;;;4.43;1.60;;;19.00;99.90;;;;;;5031478;28;20049;-79
2023/08/26 09:27:41;;;;;;;5.18;2.15;;;19.00;99.90;;;;;;5036001;28;20105;-79
2023/08/26 09:30:08;;;;;;;6.75;2.03;;;19.30;99.90;;;;;;5038705;28;20060;-79
2023/08/26 09:32:39;;;;;;;7.30;2.60;;;19.10;99.90;;;;;;5035532;28;20069;-79
2023/08/26 09:35:16;;;;;;;6.60;2.20;;;19.10;99.90;;;;;;5018847;28;20399;-79
2023/08/26 09:37:45;;;;;;;7.28;2.55;;;18.90;99.90;;;;;;5037753;28;20080;-80
2023/08/26 09:40:15;;;;;;;9.15;2.42;;;19.10;99.90;;;;;;5039123;28;20530;-79
2023/08/26 09:42:42;;;;;;;6.35;1.98;;;19.00;99.90;;;;;;5021567;28;20077;-79
2023/08/26 09:45:17;;;;;;;8.40;2.10;;;19.20;99.90;;;;;;5040128;28;20532;-79
2023/08/26 09:47:46;;;;;;;7.28;1.90;;;19.60;99.90;;;;;;5015230;28;20033;-79
2023/08/26 09:50:12;;;;;;;4.50;1.60;;;19.40;99.90;;;;;;5039761;28;20029;-79
2023/08/26 09:52:48;;;;;;;9.60;2.03;;;19.20;99.90;;;;;;5034216;28;20037;-79
2023/08/26 09:55:15;;;;;;;8.63;2.47;;;19.10;99.90;;;;;;5038709;28;20048;-79
2023/08/26 09:57:43;;;;;;;9.95;2.80;;;19.30;99.90;;;;;;5023583;28;20124;-80
2023/08/26 10:00:12;;;;;;;9.35;3.40;;;19.10;99.90;;;;;;5019584;28;20038;-80
2023/08/26 10:02:49;;;;;;;9.32;3.45;;;19.40;99.90;;;;;;5039228;28;20521;-80
2023/08/26 10:05:20;;;;;;;7.15;3.60;;;19.30;99.90;;;;;;5030603;28;20041;-81
2023/08/26 10:07:51;;;;;;;7.57;4.00;;;20.10;99.90;;;;;;5017348;28;20494;-81
2023/08/26 10:10:31;;;;;;;8.30;4.13;;;19.20;99.90;;;;;;5016005;28;20144;-81
2023/08/26 10:13:01;;;;;;;7.68;4.40;;;19.10;99.90;;;;;;5031969;28;20049;-81
2023/08/26 10:15:32;;;;;;;6.47;3.40;;;18.50;99.90;;;;;;5031255;28;20034;-81
2023/08/26 10:18:08;;;;;;;7.68;3.25;;;19.00;99.90;;;;;;5009525;28;20038;-81
2023/08/26 10:20:35;;;;;;;7.40;3.05;;;19.40;99.90;;;;;;5014629;28;20037;-81
2023/08/26 10:23:02;;;;;;;6.53;2.80;;;19.00;99.90;;;;;;5002953;28;20064;-81
2023/08/26 10:25:30;;;;;;;6.13;2.40;;;19.10;99.90;;;;;;5030141;28;20076;-81
2023/08/26 10:27:56;;;;;;;7.57;2.75;;;19.30;99.90;;;;;;5028550;28;20048;-80
2023/08/26 10:30:23;;;;;;;7.35;2.25;;;19.20;99.90;;;;;;5035756;28;20181;-81
2023/08/26 10:33:02;;;;;;;5.20;2.40;;;19.00;99.90;;;;;;5007064;28;20041;-81
2023/08/26 10:35:28;;;;;;;5.13;1.85;;;19.20;99.90;;;;;;5010954;28;20117;-81
2023/08/26 10:38:14;;;;;;;4.45;1.90;;;19.20;99.90;;;;;;5027796;28;20118;-81
2023/08/26 10:40:40;;;;;;;5.60;1.73;;;19.10;99.90;;;;;;5035518;28;20034;-81
2023/08/26 10:43:08;;;;;;;5.95;1.90;;;19.40;99.90;;;;;;5017789;28;20045;-80
2023/08/26 10:45:47;;;;;;;4.50;1.60;;;19.30;99.90;;;;;;5003394;28;20175;-81
2023/08/26 10:48:13;;;;;;;5.03;1.80;;;19.40;99.90;;;;;;5025775;28;20488;-81
2023/08/26 10:50:41;;;;;;;4.43;1.48;;;19.60;99.90;;;;;;5017676;28;20048;-81
2023/08/26 10:53:42;;;;;;;4.57;1.55;;;19.50;99.90;;;;;;5022655;28;20446;-81
2023/08/26 10:56:13;;;;;;;4.90;1.70;;;19.20;99.90;;;;;;5030773;28;20052;-81
2023/08/26 10:58:44;;;;;;;4.07;1.52;;;19.30;99.90;;;;;;5016972;28;20037;-81
2023/08/26 11:01:12;;;;;;;3.60;1.40;;;20.00;99.90;;;;;;5014599;28;20068;-81
2023/08/26 11:03:38;;;;;;;3.85;1.52;;;19.30;99.90;;;;;;5016861;28;20037;-81
2023/08/26 11:06:06;;;;;;;4.40;1.65;;;19.00;99.90;;;;;;5029982;28;20091;-81
2023/08/26 11:08:32;;;;;;;4.60;1.90;;;19.20;99.90;;;;;;5033434;28;20041;-81
2023/08/26 11:10:58;;;;;;;5.65;1.85;;;19.30;99.90;;;;;;5012882;28;20069;-81
2023/08/26 11:13:24;;;;;;;5.03;2.05;;;19.20;99.90;;;;;;5032611;28;20045;-81
2023/08/26 11:15:51;;;;;;;4.95;2.17;;;19.10;99.90;;;;;;5034388;28;20038;-81
2023/08/26 11:18:17;;;;;;;5.45;1.92;;;19.20;99.90;;;;;;5032764;28;20041;-81
2023/08/26 11:20:44;;;;;;;5.40;2.10;;;18.30;99.90;;;;;;5016224;28;20121;-81
2023/08/26 11:23:10;;;;;;;4.63;1.85;;;19.00;99.90;;;;;;5011961;28;20045;-81
2023/08/26 11:25:37;;;;;;;4.05;1.48;;;19.10;99.90;;;;;;5026749;28;20041;-81
2023/08/26 11:28:03;;;;;;;3.70;1.30;;;19.70;99.90;;;;;;5017364;28;20060;-81
2023/08/26 11:30:30;;;;;;;5.30;1.70;;;19.40;99.90;;;;;;5015771;28;20037;-81
2023/08/26 11:32:59;;;;;;;3.90;1.20;;;19.10;99.90;;;;;;5033616;28;20148;-81
2023/08/26 11:35:25;;;;;;;4.80;1.60;;;19.40;99.90;;;;;;5021713;28;20450;-81
2023/08/26 11:37:50;;;;;;;6.07;1.40;;;19.30;99.90;;;;;;5004024;28;20037;-81
2023/08/26 11:40:16;;;;;;;5.22;1.67;;;19.40;99.90;;;;;;5036539;28;20041;-81
2023/08/26 11:42:43;;;;;;;3.70;1.20;;;19.20;99.90;;;;;;5038876;28;20038;-81
2023/08/26 11:45:13;;;;;;;5.20;1.95;;;19.20;99.90;;;;;;5024673;28;20073;-81
2023/08/26 11:47:42;;;;;;;6.22;1.60;;;19.00;99.90;;;;;;5031925;28;20045;-81
2023/08/26 11:50:11;;;;;;;5.47;1.65;;;19.60;99.90;;;;;;5022502;28;20412;-82
2023/08/26 11:52:38;;;;;;;6.30;1.80;;;19.00;99.90;;;;;;5022319;28;20132;-82
2023/08/26 11:55:09;;;;;;;5.20;1.70;;;19.10;99.90;;;;;;5010502;28;20042;-81
2023/08/26 11:57:39;;;;;;;5.57;1.60;;;19.40;99.90;;;;;;5022496;28;20034;-81
2023/08/26 12:00:26;;;;;;;6.07;1.50;;;18.80;99.90;;;;;;5013603;28;20033;-82
2023/08/26 12:02:54;;;;;;;3.05;1.00;;;19.10;99.90;;;;;;5017231;28;20259;-81
2023/08/26 12:05:20;;;;;;;4.80;1.30;;;19.00;99.90;;;;;;5026424;28;20042;-81
2023/08/26 12:07:50;;;;;;;5.28;1.70;;;16.60;99.90;;;;;;5024190;28;20414;-81
2023/08/26 12:10:17;;;;;;;4.00;1.40;;;19.10;99.90;;;;;;5032955;28;20053;-81
2023/08/26 12:12:46;;;;;;;4.85;1.38;;;19.20;99.90;;;;;;5026570;28;20045;-81
2023/08/26 12:15:14;;;;;;;4.03;1.40;;;19.30;99.90;;;;;;5016846;28;20057;-82
2023/08/26 12:17:54;;;;;;;4.88;1.58;;;19.30;99.90;;;;;;5017917;28;20044;-81
2023/08/26 12:20:20;;;;;;;4.20;1.40;;;19.40;99.90;;;;;;5031052;28;20053;-81
2023/08/26 12:22:47;;;;;;;3.42;1.30;;;19.20;99.90;;;;;;5030272;28;20043;-81
2023/08/26 12:25:23;;;;;;;5.05;1.50;;;19.30;99.90;;;;;;5028865;28;20038;-82
2023/08/26 12:27:49;;;;;;;4.22;1.20;;;19.00;99.90;;;;;;5017668;28;20037;-81
2023/08/26 12:30:16;;;;;;;4.63;1.40;;;18.90;99.90;;;;;;5017987;28;20148;-81
2023/08/26 12:32:42;;;;;;;4.30;1.30;;;19.10;99.90;;;;;;5033620;28;20045;-81
2023/08/26 12:35:08;;;;;;;5.07;1.58;;;19.00;99.90;;;;;;5030140;28;20087;-81
2023/08/26 12:37:35;;;;;;;4.47;1.20;;;19.00;99.90;;;;;;5023171;28;20954;-81
2023/08/26 12:40:04;;;;;;;4.32;1.50;;;19.20;99.90;;;;;;5015776;28;20043;-82
2023/08/26 12:42:33;;;;;;;4.40;1.63;;;19.20;99.90;;;;;;5010545;28;20081;-80
2023/08/26 12:45:00;;;;;;;4.25;1.60;;;19.60;99.90;;;;;;5025091;28;20065;-80
2023/08/26 12:47:26;;;;;;;5.50;1.55;;;19.30;99.90;;;;;;5030648;28;20045;-80